createdAt,value
2019-06-07T00:02:21.794Z,16.83
2019-06-07T00:04:51.546Z,16.82
2019-06-07T00:07:22.011Z,16.82
2019-06-07T00:09:51.935Z,16.80
2019-06-07T00:12:21.813Z,16.79
2019-06-07T00:14:51.613Z,16.79
2019-06-07T00:17:21.464Z,16.72
2019-06-07T00:19:51.199Z,16.76
2019-06-07T00:22:32.574Z,16.78
2019-06-07T00:24:53.172Z,16.78
2019-06-07T00:27:22.917Z,16.74
2019-06-07T00:29:52.954Z,16.70
2019-06-07T00:32:23.042Z,16.76
2019-06-07T00:34:52.816Z,16.78
2019-06-07T00:37:25.032Z,16.76
2019-06-07T00:40:13.279Z,16.74
2019-06-07T00:42:25.787Z,16.73
2019-06-07T00:44:55.550Z,16.76
2019-06-07T00:47:25.834Z,16.75
2019-06-07T00:49:55.766Z,16.78
2019-06-07T00:54:57.527Z,16.79
2019-06-07T00:57:27.541Z,16.71
2019-06-07T00:59:57.637Z,16.69
2019-06-07T01:02:31.218Z,16.69
2019-06-07T01:04:58.857Z,16.67
2019-06-07T01:07:28.637Z,16.66
2019-06-07T01:09:58.360Z,16.63
2019-06-07T01:12:28.362Z,16.63
2019-06-07T01:14:58.458Z,16.63
2019-06-07T01:17:40.776Z,16.61
2019-06-07T01:20:01.188Z,16.63
2019-06-07T01:22:31.181Z,16.58
2019-06-07T01:25:02.306Z,16.65
2019-06-07T01:27:32.416Z,16.63
2019-06-07T01:30:02.150Z,16.64
2019-06-07T01:32:33.503Z,16.60
2019-06-07T01:35:03.240Z,16.51
2019-06-07T01:37:33.067Z,16.51
2019-06-07T01:40:03.177Z,16.40
2019-06-07T01:42:32.967Z,16.40
2019-06-07T01:45:03.303Z,16.37
2019-06-07T01:47:33.363Z,16.33
2019-06-07T01:50:03.133Z,16.31
2019-06-07T01:52:33.964Z,16.25
2019-06-07T01:55:04.154Z,16.21
2019-06-07T01:57:45.625Z,16.15
2019-06-07T02:00:07.399Z,16.06
2019-06-07T02:02:37.493Z,16.01
2019-06-07T02:05:07.803Z,15.98
2019-06-07T02:07:37.760Z,16.01
2019-06-07T02:10:08.032Z,15.97
2019-06-07T02:12:43.142Z,15.98
2019-06-07T02:15:10.864Z,15.98
2019-06-07T02:17:40.893Z,15.97
2019-06-07T02:20:10.711Z,15.91
2019-06-07T02:22:40.797Z,15.85
2019-06-07T02:25:37.155Z,15.90
2019-06-07T02:27:42.291Z,15.85
2019-06-07T02:32:44.251Z,15.81
2019-06-07T02:35:14.979Z,15.76
2019-06-07T02:37:44.966Z,15.79
2019-06-07T02:40:15.063Z,15.73
2019-06-07T02:42:44.838Z,15.77
2019-06-07T02:45:16.164Z,15.71
2019-06-07T02:47:47.232Z,15.67
2019-06-07T02:50:18.239Z,15.66
2019-06-07T02:52:49.072Z,15.65
2019-06-07T02:55:18.960Z,15.64
2019-06-07T02:57:48.725Z,15.65
2019-06-07T03:01:00.264Z,15.60
2019-06-07T03:03:14.035Z,15.58
2019-06-07T03:05:44.826Z,15.62
2019-06-07T03:08:15.844Z,15.62
2019-06-07T03:10:47.716Z,15.59
2019-06-07T03:13:19.634Z,15.58
2019-06-07T03:15:51.339Z,15.64
2019-06-07T03:18:41.754Z,15.68
2019-06-07T03:21:17.824Z,15.72
2019-06-07T03:23:47.883Z,15.77
2019-06-07T03:26:18.651Z,15.77
2019-06-07T03:28:48.565Z,15.77
2019-06-07T03:31:18.325Z,15.78
2019-06-07T03:33:48.112Z,15.77
2019-06-07T03:36:23.939Z,15.76
2019-06-07T03:38:49.925Z,15.75
2019-06-07T03:41:20.007Z,15.75
2019-06-07T03:43:49.991Z,15.70
2019-06-07T03:46:19.743Z,15.74
2019-06-07T03:48:49.505Z,15.70
2019-06-07T03:51:25.310Z,15.72
2019-06-07T03:53:50.717Z,15.75
2019-06-07T03:56:20.490Z,15.69
2019-06-07T03:58:50.734Z,15.67
2019-06-07T04:01:20.532Z,15.70
2019-06-07T04:03:51.991Z,15.81
2019-06-07T04:06:21.895Z,15.71
2019-06-07T04:08:51.635Z,15.68
2019-06-07T04:11:21.375Z,15.66
2019-06-07T04:13:51.109Z,15.58
2019-06-07T04:16:20.868Z,15.59
2019-06-07T04:18:50.613Z,15.56
2019-06-07T04:21:20.374Z,15.53
2019-06-07T04:23:50.141Z,15.54
2019-06-07T04:26:20.867Z,15.58
2019-06-07T04:31:22.395Z,15.60
2019-06-07T04:33:52.179Z,15.60
2019-06-07T04:36:39.417Z,15.59
2019-06-07T04:38:55.868Z,15.65
2019-06-07T04:41:28.657Z,15.69
2019-06-07T04:43:59.727Z,15.70
2019-06-07T04:46:31.567Z,15.63
2019-06-07T04:49:04.393Z,15.57
2019-06-07T04:51:37.223Z,15.59
2019-06-07T04:54:06.581Z,16.94
2019-06-07T04:56:40.788Z,17.97
2019-06-07T04:59:08.017Z,18.52
2019-06-07T05:01:42.229Z,18.03
2019-06-07T05:04:09.227Z,18.25
2019-06-07T05:06:40.344Z,17.31
2019-06-07T05:09:10.435Z,16.93
2019-06-07T05:11:44.741Z,16.68
2019-06-07T05:14:12.004Z,16.41
2019-06-07T05:16:44.336Z,16.32
2019-06-07T05:19:13.300Z,16.36
2019-06-07T05:22:01.443Z,16.31
2019-06-07T05:24:15.111Z,16.39
2019-06-07T05:26:44.891Z,16.35
2019-06-07T05:29:14.639Z,16.42
2019-06-07T05:31:45.594Z,16.53
2019-06-07T05:34:15.443Z,16.59
2019-06-07T05:36:45.338Z,16.70
2019-06-07T05:39:15.090Z,16.63
2019-06-07T05:41:44.933Z,16.78
2019-06-07T05:44:15.311Z,17.07
2019-06-07T05:46:47.399Z,17.21
2019-06-07T05:49:17.414Z,18.81
2019-06-07T05:51:47.258Z,20.17
2019-06-07T05:54:17.027Z,20.91
2019-06-07T05:56:46.779Z,21.45
2019-06-07T05:59:16.521Z,22.50
2019-06-07T06:01:58.968Z,21.64
2019-06-07T06:04:17.799Z,21.64
2019-06-07T06:06:47.695Z,20.72
2019-06-07T06:09:17.929Z,20.01
2019-06-07T06:11:59.550Z,19.63
2019-06-07T06:14:19.877Z,19.44
2019-06-07T06:16:50.133Z,18.73
2019-06-07T06:19:20.248Z,18.49
2019-06-07T06:21:50.013Z,18.27
2019-06-07T06:24:19.813Z,18.67
2019-06-07T06:26:54.745Z,18.41
2019-06-07T06:29:21.059Z,18.24
2019-06-07T06:32:39.586Z,18.51
2019-06-07T06:34:22.380Z,18.59
2019-06-07T06:36:52.177Z,18.61
2019-06-07T06:39:21.915Z,18.37
2019-06-07T06:42:00.834Z,18.54
2019-06-07T06:44:23.154Z,18.41
2019-06-07T06:46:58.034Z,18.90
2019-06-07T06:49:24.686Z,18.51
2019-06-07T06:51:54.445Z,18.66
2019-06-07T06:54:39.894Z,18.47
2019-06-07T06:57:18.156Z,18.49
2019-06-07T06:59:38.880Z,18.34
2019-06-07T07:01:59.051Z,18.34
2019-06-07T07:04:29.286Z,18.53
2019-06-07T07:06:59.134Z,18.43
2019-06-07T07:09:29.596Z,18.48
2019-06-07T07:12:11.322Z,18.28
2019-06-07T07:14:31.198Z,18.49
2019-06-07T07:17:01.080Z,18.54
2019-06-07T07:19:30.837Z,18.71
2019-06-07T07:22:00.903Z,18.79
2019-06-07T07:24:30.900Z,18.80
2019-06-07T07:27:00.681Z,18.79
2019-06-07T07:29:30.469Z,18.71
2019-06-07T07:32:00.222Z,18.83
2019-06-07T07:34:35.504Z,18.96
2019-06-07T07:37:01.660Z,19.04
2019-06-07T07:39:32.454Z,19.12
2019-06-07T07:42:20.094Z,19.07
2019-06-07T07:44:33.988Z,19.11
2019-06-07T07:47:03.815Z,19.00
2019-06-07T07:49:33.600Z,19.20
2019-06-07T07:52:03.428Z,19.18
2019-06-07T07:54:34.242Z,19.18
2019-06-07T07:57:04.119Z,19.15
2019-06-07T07:59:43.905Z,19.29
2019-06-07T08:02:05.489Z,19.32
2019-06-07T08:05:13.136Z,19.22
2019-06-07T08:07:07.823Z,19.45
2019-06-07T08:09:38.751Z,19.36
2019-06-07T08:12:09.919Z,19.59
2019-06-07T08:14:40.646Z,19.58
2019-06-07T08:17:12.455Z,19.68
2019-06-07T08:19:44.053Z,19.90
2019-06-07T08:22:14.573Z,19.98
2019-06-07T08:24:45.623Z,20.09
2019-06-07T08:27:25.734Z,20.33
2019-06-07T08:30:08.873Z,20.28
2019-06-07T08:32:22.063Z,20.53
2019-06-07T08:34:56.868Z,20.64
2019-06-07T08:38:13.440Z,20.62
2019-06-07T08:39:59.737Z,20.66
2019-06-07T08:42:37.346Z,20.52
2019-06-07T08:45:05.463Z,20.37
2019-06-07T08:47:36.539Z,20.35
2019-06-07T08:50:09.432Z,20.57
2019-06-07T08:52:41.120Z,20.67
2019-06-07T08:55:14.192Z,20.52
2019-06-07T08:57:45.983Z,20.76
2019-06-07T09:00:42.863Z,20.83
2019-06-07T09:02:51.147Z,21.28
2019-06-07T09:05:23.924Z,21.57
2019-06-07T09:08:20.686Z,22.01
2019-06-07T09:10:28.390Z,22.38
2019-06-07T09:13:04.995Z,22.70
2019-06-07T09:15:32.013Z,22.79
2019-06-07T09:18:39.967Z,23.16
2019-06-07T09:20:49.503Z,23.17
2019-06-07T09:23:20.908Z,22.92
2019-06-07T09:26:02.552Z,22.41
2019-06-07T09:28:26.912Z,22.41
2019-06-07T09:30:59.760Z,21.89
2019-06-07T09:33:30.255Z,21.68
2019-06-07T09:36:06.155Z,21.45
2019-06-07T09:38:34.787Z,21.60
2019-06-07T09:41:07.454Z,21.65
2019-06-07T09:46:15.818Z,21.35
2019-06-07T09:51:23.034Z,21.61
2019-06-07T09:53:54.365Z,21.63
2019-06-07T09:56:25.152Z,21.65
2019-06-07T09:58:59.583Z,23.90
2019-06-07T10:01:28.998Z,23.90
2019-06-07T10:04:04.580Z,24.85
2019-06-07T10:06:32.212Z,24.85
2019-06-07T10:11:36.823Z,24.17
2019-06-07T10:14:08.705Z,24.09
2019-06-07T10:16:48.042Z,25.07
2019-06-07T10:19:12.221Z,25.07
2019-06-07T10:21:43.258Z,25.12
2019-06-07T10:24:14.226Z,25.12
2019-06-07T10:26:45.042Z,24.87
2019-06-07T10:29:15.862Z,25.43
2019-06-07T10:31:47.023Z,25.43
2019-06-07T10:34:18.633Z,24.91
2019-06-07T10:36:50.133Z,25.62
2019-06-07T10:39:24.230Z,26.04
2019-06-07T10:41:55.530Z,26.13
2019-06-07T10:44:29.180Z,26.96
2019-06-07T10:46:59.305Z,27.31
2019-06-07T10:49:29.158Z,26.79
2019-06-07T10:52:02.795Z,26.35
2019-06-07T10:54:31.016Z,26.26
2019-06-07T10:57:00.787Z,26.55
2019-06-07T10:59:30.981Z,25.00
2019-06-07T11:02:00.830Z,24.73
2019-06-07T11:04:30.860Z,24.33
2019-06-07T11:07:00.775Z,23.87
2019-06-07T11:09:30.915Z,24.39
2019-06-07T11:12:00.706Z,24.20
2019-06-07T11:14:30.527Z,23.88
2019-06-07T11:17:01.313Z,25.09
2019-06-07T11:19:31.220Z,25.77
2019-06-07T11:22:01.103Z,26.26
2019-06-07T11:24:31.062Z,26.33
2019-06-07T11:27:00.909Z,26.43
2019-06-07T11:29:30.830Z,25.91
2019-06-07T11:32:01.146Z,25.63
2019-06-07T11:34:30.987Z,26.07
2019-06-07T11:37:01.060Z,26.48
2019-06-07T11:39:30.981Z,26.35
2019-06-07T11:42:00.754Z,26.46
2019-06-07T11:44:30.770Z,26.55
2019-06-07T11:47:00.238Z,25.80
2019-06-07T11:49:30.089Z,25.76
2019-06-07T11:52:00.294Z,26.02
2019-06-07T11:54:30.134Z,26.50
2019-06-07T11:57:00.104Z,25.68
2019-06-07T11:59:30.199Z,25.03
2019-06-07T12:02:00.007Z,25.02
2019-06-07T12:04:34.969Z,25.63
2019-06-07T12:07:02.224Z,26.02
2019-06-07T12:09:32.062Z,25.83
2019-06-07T12:12:02.023Z,25.64
2019-06-07T12:14:31.850Z,25.76
2019-06-07T12:17:01.766Z,25.41
2019-06-07T12:19:31.699Z,25.48
2019-06-07T12:22:01.563Z,25.78
2019-06-07T12:24:31.496Z,25.88
2019-06-07T12:27:01.330Z,25.31
2019-06-07T12:29:33.874Z,25.54
2019-06-07T12:32:02.670Z,25.31
2019-06-07T12:34:32.506Z,25.56
2019-06-07T12:37:02.403Z,25.50
2019-06-07T12:39:33.326Z,25.89
2019-06-07T12:42:03.140Z,25.90
2019-06-07T12:44:33.376Z,26.06
2019-06-07T12:47:03.173Z,25.70
2019-06-07T12:49:33.082Z,24.97
2019-06-07T12:52:02.883Z,24.87
2019-06-07T12:54:32.795Z,24.82
2019-06-07T12:57:02.805Z,25.58
2019-06-07T12:59:32.679Z,25.65
2019-06-07T13:02:02.799Z,25.49
2019-06-07T13:04:32.532Z,25.50
2019-06-07T13:07:02.425Z,24.91
2019-06-07T13:09:35.909Z,24.87
2019-06-07T13:12:04.100Z,24.01
2019-06-07T13:14:34.114Z,23.52
2019-06-07T13:17:04.004Z,24.42
2019-06-07T13:19:34.273Z,24.26
2019-06-07T13:22:04.589Z,24.51
2019-06-07T13:24:34.643Z,24.86
2019-06-07T13:27:04.542Z,24.69
2019-06-07T13:29:34.322Z,24.82
2019-06-07T13:32:04.186Z,25.12
2019-06-07T13:34:34.041Z,25.52
2019-06-07T13:37:03.841Z,25.17
2019-06-07T13:39:33.967Z,24.85
2019-06-07T13:42:03.807Z,24.61
2019-06-07T13:44:33.620Z,24.88
2019-06-07T13:47:03.635Z,24.81
2019-06-07T13:49:33.506Z,24.41
2019-06-07T13:52:03.285Z,24.69
2019-06-07T13:54:33.135Z,24.87
2019-06-07T13:57:03.352Z,24.77
2019-06-07T13:59:33.489Z,24.66
2019-06-07T14:02:03.345Z,24.93
2019-06-07T14:04:33.241Z,24.87
2019-06-07T14:07:03.318Z,25.04
2019-06-07T14:09:33.238Z,25.02
2019-06-07T14:12:03.353Z,25.08
2019-06-07T14:14:34.030Z,25.15
2019-06-07T14:17:03.894Z,25.32
2019-06-07T14:19:33.654Z,24.83
2019-06-07T14:22:03.581Z,25.20
2019-06-07T14:24:33.354Z,25.08
2019-06-07T14:27:06.312Z,24.61
2019-06-07T14:29:37.155Z,25.02
2019-06-07T14:32:08.412Z,25.38
2019-06-07T14:34:38.228Z,25.09
2019-06-07T14:37:08.074Z,25.47
2019-06-07T14:39:37.887Z,25.28
2019-06-07T14:42:09.937Z,25.58
2019-06-07T14:44:39.180Z,25.69
2019-06-07T14:47:09.015Z,25.89
2019-06-07T14:49:38.788Z,25.39
2019-06-07T14:52:08.544Z,25.50
2019-06-07T14:54:39.362Z,25.71
2019-06-07T14:57:09.408Z,25.78
2019-06-07T14:59:39.180Z,25.75
2019-06-07T15:02:09.100Z,25.44
2019-06-07T15:04:41.996Z,25.76
2019-06-07T15:07:14.148Z,25.87
2019-06-07T15:09:44.001Z,25.80
2019-06-07T15:12:24.472Z,25.78
2019-06-07T15:14:45.695Z,25.63
2019-06-07T15:17:15.477Z,25.70
2019-06-07T15:19:45.274Z,25.87
2019-06-07T15:22:15.030Z,25.83
2019-06-07T15:24:44.941Z,25.62
2019-06-07T15:27:15.117Z,25.74
2019-06-07T15:29:44.992Z,25.63
2019-06-07T15:32:14.783Z,25.78
2019-06-07T15:34:44.553Z,25.75
2019-06-07T15:37:14.331Z,25.81
2019-06-07T15:39:44.101Z,25.89
2019-06-07T15:42:13.875Z,26.03
2019-06-07T15:44:43.616Z,25.66
2019-06-07T15:47:13.384Z,25.57
2019-06-07T15:49:43.204Z,25.58
2019-06-07T15:52:13.044Z,25.53
2019-06-07T15:54:42.797Z,25.64
2019-06-07T15:57:12.627Z,25.53
2019-06-07T15:59:42.461Z,25.60
2019-06-07T16:02:12.216Z,25.60
2019-06-07T16:04:42.512Z,25.69
2019-06-07T16:07:12.575Z,25.72
2019-06-07T16:09:42.844Z,25.72
2019-06-07T16:12:12.789Z,25.78
2019-06-07T16:14:43.480Z,25.78
2019-06-07T16:17:14.850Z,25.67
2019-06-07T16:19:46.609Z,25.71
2019-06-07T16:22:16.506Z,25.68
2019-06-07T16:24:46.278Z,25.65
2019-06-07T16:27:16.037Z,25.60
2019-06-07T16:29:47.052Z,25.64
2019-06-07T16:32:16.773Z,25.74
2019-06-07T16:34:46.568Z,25.55
2019-06-07T16:37:16.453Z,25.58
2019-06-07T16:39:46.257Z,25.45
2019-06-07T16:42:16.079Z,25.72
2019-06-07T16:44:45.882Z,25.82
2019-06-07T16:47:15.631Z,25.68
2019-06-07T16:49:45.401Z,25.75
2019-06-07T16:52:15.184Z,25.70
2019-06-07T16:54:45.750Z,25.62
2019-06-07T16:57:15.739Z,25.65
2019-06-07T16:59:49.081Z,25.62
2019-06-07T17:02:17.269Z,25.63
2019-06-07T17:04:47.903Z,25.67
2019-06-07T17:07:18.647Z,25.68
2019-06-07T17:09:49.423Z,25.72
2019-06-07T17:12:19.236Z,25.70
2019-06-07T17:14:49.137Z,25.68
2019-06-07T17:17:19.009Z,25.60
2019-06-07T17:19:49.304Z,25.62
2019-06-07T17:22:19.158Z,25.55
2019-06-07T17:24:49.851Z,25.49
2019-06-07T17:27:20.030Z,25.50
2019-06-07T17:29:50.203Z,25.43
2019-06-07T17:32:20.158Z,25.45
2019-06-07T17:34:50.422Z,25.45
2019-06-07T17:37:21.303Z,25.46
2019-06-07T17:39:51.318Z,25.41
2019-06-07T17:42:21.111Z,25.41
2019-06-07T17:44:51.461Z,25.35
2019-06-07T17:47:21.579Z,25.28
2019-06-07T17:49:52.199Z,25.21
2019-06-07T17:52:22.402Z,25.18
2019-06-07T17:54:52.478Z,25.23
2019-06-07T17:57:22.430Z,25.17
2019-06-07T17:59:52.711Z,25.17
2019-06-07T18:02:22.891Z,25.09
2019-06-07T18:04:53.585Z,25.09
2019-06-07T18:07:25.592Z,25.08
2019-06-07T18:09:56.048Z,25.07
2019-06-07T18:12:25.963Z,25.02
2019-06-07T18:14:55.745Z,24.97
2019-06-07T18:17:34.624Z,24.90
2019-06-07T18:19:57.677Z,24.87
2019-06-07T18:22:27.530Z,24.83
2019-06-07T18:24:57.330Z,24.76
2019-06-07T18:27:27.215Z,24.76
2019-06-07T18:29:57.267Z,24.71
2019-06-07T18:32:27.235Z,24.66
2019-06-07T18:34:57.201Z,24.63
2019-06-07T18:37:27.050Z,24.61
2019-06-07T18:39:56.922Z,24.56
2019-06-07T18:42:27.003Z,24.53
2019-06-07T18:44:57.902Z,24.51
2019-06-07T18:47:28.008Z,24.44
2019-06-07T18:49:58.739Z,24.37
2019-06-07T18:52:34.536Z,24.38
2019-06-07T18:55:05.224Z,24.31
2019-06-07T18:57:35.773Z,24.24
2019-06-07T19:00:06.901Z,24.24
2019-06-07T19:02:37.247Z,24.22
2019-06-07T19:05:08.774Z,24.11
2019-06-07T19:07:38.892Z,24.03
2019-06-07T19:10:09.163Z,23.99
2019-06-07T19:12:39.095Z,23.94
2019-06-07T19:15:10.172Z,23.93
2019-06-07T19:17:39.936Z,23.93
2019-06-07T19:20:10.922Z,23.90
2019-06-07T19:22:40.711Z,23.88
2019-06-07T19:25:11.240Z,23.86
2019-06-07T19:27:41.125Z,23.74
2019-06-07T19:30:13.334Z,23.74
2019-06-07T19:32:43.551Z,23.72
2019-06-07T19:35:16.592Z,23.72
2019-06-07T19:37:46.423Z,23.69
2019-06-07T19:40:18.205Z,23.61
2019-06-07T19:42:48.305Z,23.57
2019-06-07T19:45:30.213Z,23.53
2019-06-07T19:47:50.244Z,23.53
2019-06-07T19:50:20.090Z,23.47
2019-06-07T19:52:49.898Z,23.50
2019-06-07T19:55:19.925Z,23.42
2019-06-07T19:57:50.255Z,23.39
2019-06-07T20:00:20.488Z,23.34
2019-06-07T20:02:50.534Z,23.31
2019-06-07T20:05:21.207Z,23.31
2019-06-07T20:07:51.273Z,23.27
2019-06-07T20:10:21.247Z,23.21
2019-06-07T20:12:51.079Z,23.20
2019-06-07T20:15:29.194Z,23.18
2019-06-07T20:17:52.668Z,23.14
2019-06-07T20:20:24.003Z,23.11
2019-06-07T20:22:54.012Z,23.04
2019-06-07T20:25:24.096Z,23.01
2019-06-07T20:27:53.878Z,22.95
2019-06-07T20:30:23.997Z,22.94
2019-06-07T20:32:54.376Z,22.89
2019-06-07T20:35:24.610Z,22.94
2019-06-07T20:37:54.518Z,22.85
2019-06-07T20:40:25.082Z,22.81
2019-06-07T20:42:55.004Z,22.81
2019-06-07T20:45:33.573Z,22.67
2019-06-07T20:47:58.084Z,22.61
2019-06-07T20:50:28.196Z,22.54
2019-06-07T20:52:59.854Z,22.58
2019-06-07T20:55:29.813Z,22.53
2019-06-07T20:58:00.819Z,22.53
2019-06-07T21:00:30.781Z,22.41
2019-06-07T21:03:01.104Z,22.36
2019-06-07T21:05:31.011Z,22.31
2019-06-07T21:08:01.959Z,22.30
2019-06-07T21:10:31.844Z,22.23
2019-06-07T21:13:02.038Z,22.24
2019-06-07T21:15:45.601Z,22.24
2019-06-07T21:18:09.946Z,22.21
2019-06-07T21:20:36.224Z,22.20
2019-06-07T21:23:06.866Z,22.15
2019-06-07T21:25:37.225Z,22.12
2019-06-07T21:28:07.358Z,22.07
2019-06-07T21:30:37.186Z,21.98
2019-06-07T21:33:07.667Z,21.97
2019-06-07T21:35:37.593Z,21.92
2019-06-07T21:38:07.881Z,21.92
2019-06-07T21:40:42.973Z,21.89
2019-06-07T21:43:13.809Z,21.85
2019-06-07T21:45:43.980Z,21.79
2019-06-07T21:48:14.386Z,21.79
2019-06-07T21:50:44.729Z,21.78
2019-06-07T21:53:14.643Z,21.71
2019-06-07T21:55:44.493Z,21.63
2019-06-07T21:58:15.899Z,21.67
2019-06-07T22:01:24.845Z,21.67
2019-06-07T22:03:54.858Z,21.63
2019-06-07T22:06:24.870Z,21.61
2019-06-07T22:08:54.835Z,21.56
2019-06-07T22:11:24.639Z,21.56
2019-06-07T22:13:54.740Z,21.56
2019-06-07T22:16:29.238Z,21.50
2019-06-07T22:18:56.057Z,21.46
2019-06-07T22:21:26.250Z,21.44
2019-06-07T22:23:56.147Z,21.42
2019-06-07T22:26:26.275Z,21.33
2019-06-07T22:28:56.336Z,21.37
2019-06-07T22:31:26.129Z,21.36
2019-06-07T22:33:55.961Z,21.30
2019-06-07T22:36:25.866Z,21.30
2019-06-07T22:38:55.678Z,21.23
2019-06-07T22:41:25.770Z,21.22
2019-06-07T22:43:56.553Z,21.17
2019-06-07T22:46:36.922Z,21.14
2019-06-07T22:48:57.896Z,21.12
2019-06-07T22:51:27.701Z,21.09
2019-06-07T22:53:57.496Z,21.13
2019-06-07T22:56:33.273Z,21.08
2019-06-07T22:59:03.055Z,21.03
2019-06-07T23:01:32.843Z,21.02
2019-06-07T23:04:03.069Z,21.00
2019-06-07T23:06:32.834Z,21.00
2019-06-07T23:09:02.835Z,20.95
2019-06-07T23:11:34.419Z,20.89
2019-06-07T23:14:04.662Z,20.88
2019-06-07T23:16:34.452Z,20.87
2019-06-07T23:19:04.307Z,20.83
2019-06-07T23:21:34.109Z,20.78
2019-06-07T23:24:04.064Z,20.73
2019-06-07T23:26:33.862Z,20.73
2019-06-07T23:29:03.715Z,20.74
2019-06-07T23:31:33.489Z,20.68
2019-06-07T23:34:03.274Z,20.66
2019-06-07T23:36:33.049Z,20.58
2019-06-07T23:39:03.200Z,20.58
2019-06-07T23:41:33.083Z,20.58
2019-06-07T23:44:02.876Z,20.52
2019-06-07T23:46:32.726Z,20.51
2019-06-07T23:49:02.785Z,20.52
2019-06-07T23:51:32.582Z,20.47
2019-06-07T23:54:02.647Z,20.50
2019-06-07T23:56:32.607Z,20.37
2019-06-07T23:59:02.405Z,20.41
